sensor_id;sensor_type;location;lat;lon;timestamp;temperature;humidity
10538;DHT22;5317;49.048;8.468;2024-02-23T00:00:54;12.30;90.60
10538;DHT22;5317;49.048;8.468;2024-02-23T00:03:20;12.30;90.60
10538;DHT22;5317;49.048;8.468;2024-02-23T00:05:47;12.30;90.60
10538;DHT22;5317;49.048;8.468;2024-02-23T00:08:14;12.30;90.20
10538;DHT22;5317;49.048;8.468;2024-02-23T00:10:42;12.20;90.20
10538;DHT22;5317;49.048;8.468;2024-02-23T00:13:09;12.20;90.30
10538;DHT22;5317;49.048;8.468;2024-02-23T00:15:36;12.30;90.20
10538;DHT22;5317;49.048;8.468;2024-02-23T00:18:04;12.20;90.30
10538;DHT22;5317;49.048;8.468;2024-02-23T00:20:32;12.30;90.30
10538;DHT22;5317;49.048;8.468;2024-02-23T00:22:59;12.30;89.70
10538;DHT22;5317;49.048;8.468;2024-02-23T00:25:25;12.30;89.50
10538;DHT22;5317;49.048;8.468;2024-02-23T00:27:54;12.20;89.20
10538;DHT22;5317;49.048;8.468;2024-02-23T00:30:20;12.20;89.40
10538;DHT22;5317;49.048;8.468;2024-02-23T00:32:47;12.20;88.90
10538;DHT22;5317;49.048;8.468;2024-02-23T00:35:14;12.10;89.20
10538;DHT22;5317;49.048;8.468;2024-02-23T00:37:41;12.20;89.30
10538;DHT22;5317;49.048;8.468;2024-02-23T00:40:09;12.10;89.00
10538;DHT22;5317;49.048;8.468;2024-02-23T00:42:36;12.00;89.30
10538;DHT22;5317;49.048;8.468;2024-02-23T00:45:06;12.00;88.80
10538;DHT22;5317;49.048;8.468;2024-02-23T00:47:33;12.00;89.10
10538;DHT22;5317;49.048;8.468;2024-02-23T00:50:01;12.00;89.00
10538;DHT22;5317;49.048;8.468;2024-02-23T00:52:27;12.00;88.90
10538;DHT22;5317;49.048;8.468;2024-02-23T00:54:54;12.00;88.80
10538;DHT22;5317;49.048;8.468;2024-02-23T00:57:21;12.00;88.50
10538;DHT22;5317;49.048;8.468;2024-02-23T00:59:53;12.00;88.50
10538;DHT22;5317;49.048;8.468;2024-02-23T01:02:21;12.10;88.30
10538;DHT22;5317;49.048;8.468;2024-02-23T01:04:48;12.00;87.90
10538;DHT22;5317;49.048;8.468;2024-02-23T01:07:15;12.00;88.10
10538;DHT22;5317;49.048;8.468;2024-02-23T01:09:42;12.00;87.80
10538;DHT22;5317;49.048;8.468;2024-02-23T01:12:08;12.00;88.10
10538;DHT22;5317;49.048;8.468;2024-02-23T01:14:35;11.90;88.00
10538;DHT22;5317;49.048;8.468;2024-02-23T01:17:02;12.00;87.80
10538;DHT22;5317;49.048;8.468;2024-02-23T01:19:31;11.90;87.50
10538;DHT22;5317;49.048;8.468;2024-02-23T01:21:57;11.90;87.50
10538;DHT22;5317;49.048;8.468;2024-02-23T01:24:26;11.90;87.10
10538;DHT22;5317;49.048;8.468;2024-02-23T01:26:55;11.80;87.30
10538;DHT22;5317;49.048;8.468;2024-02-23T01:29:22;11.80;87.50
10538;DHT22;5317;49.048;8.468;2024-02-23T01:31:49;11.80;87.20
10538;DHT22;5317;49.048;8.468;2024-02-23T01:34:16;11.70;87.50
10538;DHT22;5317;49.048;8.468;2024-02-23T01:36:44;11.70;87.50
10538;DHT22;5317;49.048;8.468;2024-02-23T01:39:11;11.70;87.30
10538;DHT22;5317;49.048;8.468;2024-02-23T01:41:38;11.80;88.30
10538;DHT22;5317;49.048;8.468;2024-02-23T01:44:05;11.80;87.20
10538;DHT22;5317;49.048;8.468;2024-02-23T01:46:32;11.80;87.20
10538;DHT22;5317;49.048;8.468;2024-02-23T01:48:59;11.80;87.10
10538;DHT22;5317;49.048;8.468;2024-02-23T01:51:26;11.80;87.70
10538;DHT22;5317;49.048;8.468;2024-02-23T01:53:54;11.80;87.60
10538;DHT22;5317;49.048;8.468;2024-02-23T01:56:22;11.90;87.70
10538;DHT22;5317;49.048;8.468;2024-02-23T01:58:49;11.90;87.50
10538;DHT22;5317;49.048;8.468;2024-02-23T02:01:16;11.90;87.00
10538;DHT22;5317;49.048;8.468;2024-02-23T02:03:43;11.90;87.00
10538;DHT22;5317;49.048;8.468;2024-02-23T02:06:10;11.90;87.00
10538;DHT22;5317;49.048;8.468;2024-02-23T02:08:38;11.90;86.80
10538;DHT22;5317;49.048;8.468;2024-02-23T02:11:06;11.90;86.30
10538;DHT22;5317;49.048;8.468;2024-02-23T02:13:33;11.90;86.30
10538;DHT22;5317;49.048;8.468;2024-02-23T02:16:01;12.00;86.00
10538;DHT22;5317;49.048;8.468;2024-02-23T02:18:28;12.00;85.70
10538;DHT22;5317;49.048;8.468;2024-02-23T02:20:56;12.00;85.50
10538;DHT22;5317;49.048;8.468;2024-02-23T02:23:23;12.00;85.10
10538;DHT22;5317;49.048;8.468;2024-02-23T02:25:52;11.90;85.10
10538;DHT22;5317;49.048;8.468;2024-02-23T02:28:21;11.80;84.80
10538;DHT22;5317;49.048;8.468;2024-02-23T02:30:48;11.70;84.90
10538;DHT22;5317;49.048;8.468;2024-02-23T02:33:15;11.70;85.50
10538;DHT22;5317;49.048;8.468;2024-02-23T02:35:42;11.60;85.10
10538;DHT22;5317;49.048;8.468;2024-02-23T02:38:10;11.60;85.40
10538;DHT22;5317;49.048;8.468;2024-02-23T02:40:37;11.60;85.30
10538;DHT22;5317;49.048;8.468;2024-02-23T02:43:04;11.60;85.70
10538;DHT22;5317;49.048;8.468;2024-02-23T02:45:33;11.70;85.80
10538;DHT22;5317;49.048;8.468;2024-02-23T02:48:00;11.70;85.80
10538;DHT22;5317;49.048;8.468;2024-02-23T02:50:27;11.70;85.70
10538;DHT22;5317;49.048;8.468;2024-02-23T02:52:54;11.70;85.50
10538;DHT22;5317;49.048;8.468;2024-02-23T02:55:20;11.60;85.80
10538;DHT22;5317;49.048;8.468;2024-02-23T02:57:47;11.50;85.90
10538;DHT22;5317;49.048;8.468;2024-02-23T03:00:14;11.40;86.00
10538;DHT22;5317;49.048;8.468;2024-02-23T03:02:43;11.40;85.90
10538;DHT22;5317;49.048;8.468;2024-02-23T03:05:09;11.40;86.20
10538;DHT22;5317;49.048;8.468;2024-02-23T03:07:36;11.30;86.00
10538;DHT22;5317;49.048;8.468;2024-02-23T03:10:04;11.40;86.40
10538;DHT22;5317;49.048;8.468;2024-02-23T03:12:31;11.40;86.00
10538;DHT22;5317;49.048;8.468;2024-02-23T03:14:58;11.40;85.80
10538;DHT22;5317;49.048;8.468;2024-02-23T03:17:25;11.40;85.80
10538;DHT22;5317;49.048;8.468;2024-02-23T03:19:53;11.30;85.90
10538;DHT22;5317;49.048;8.468;2024-02-23T03:22:20;11.20;84.40
10538;DHT22;5317;49.048;8.468;2024-02-23T03:24:47;11.20;84.90
10538;DHT22;5317;49.048;8.468;2024-02-23T03:27:14;11.30;84.60
10538;DHT22;5317;49.048;8.468;2024-02-23T03:29:40;11.20;84.00
10538;DHT22;5317;49.048;8.468;2024-02-23T03:32:07;11.20;83.70
10538;DHT22;5317;49.048;8.468;2024-02-23T03:34:36;11.20;82.60
10538;DHT22;5317;49.048;8.468;2024-02-23T03:37:04;11.10;83.00
10538;DHT22;5317;49.048;8.468;2024-02-23T03:39:31;11.20;82.40
10538;DHT22;5317;49.048;8.468;2024-02-23T03:41:58;11.10;81.90
10538;DHT22;5317;49.048;8.468;2024-02-23T03:44:25;11.20;82.60
10538;DHT22;5317;49.048;8.468;2024-02-23T03:46:51;11.20;82.40
10538;DHT22;5317;49.048;8.468;2024-02-23T03:49:18;11.10;81.60
10538;DHT22;5317;49.048;8.468;2024-02-23T03:51:45;11.10;80.80
10538;DHT22;5317;49.048;8.468;2024-02-23T03:54:13;11.20;81.80
10538;DHT22;5317;49.048;8.468;2024-02-23T03:56:40;11.20;80.90
10538;DHT22;5317;49.048;8.468;2024-02-23T03:59:07;11.20;81.40
10538;DHT22;5317;49.048;8.468;2024-02-23T04:01:36;11.30;81.30
10538;DHT22;5317;49.048;8.468;2024-02-23T04:04:03;11.20;81.10
10538;DHT22;5317;49.048;8.468;2024-02-23T04:06:30;11.30;81.30
10538;DHT22;5317;49.048;8.468;2024-02-23T04:08:57;11.30;81.30
10538;DHT22;5317;49.048;8.468;2024-02-23T04:11:25;11.40;81.10
10538;DHT22;5317;49.048;8.468;2024-02-23T04:13:52;11.40;81.30
10538;DHT22;5317;49.048;8.468;2024-02-23T04:16:23;11.50;81.20
10538;DHT22;5317;49.048;8.468;2024-02-23T04:18:50;11.50;81.50
10538;DHT22;5317;49.048;8.468;2024-02-23T04:21:17;11.50;81.50
10538;DHT22;5317;49.048;8.468;2024-02-23T04:23:44;11.50;81.50
10538;DHT22;5317;49.048;8.468;2024-02-23T04:26:10;11.50;81.60
10538;DHT22;5317;49.048;8.468;2024-02-23T04:28:39;11.50;81.30
10538;DHT22;5317;49.048;8.468;2024-02-23T04:31:08;11.40;81.10
10538;DHT22;5317;49.048;8.468;2024-02-23T04:33:35;11.30;81.30
10538;DHT22;5317;49.048;8.468;2024-02-23T04:36:02;11.30;81.50
10538;DHT22;5317;49.048;8.468;2024-02-23T04:38:29;11.30;81.70
10538;DHT22;5317;49.048;8.468;2024-02-23T04:40:56;11.40;81.90
10538;DHT22;5317;49.048;8.468;2024-02-23T04:43:24;11.50;81.50
10538;DHT22;5317;49.048;8.468;2024-02-23T04:45:52;11.50;80.80
10538;DHT22;5317;49.048;8.468;2024-02-23T04:48:19;11.50;81.10
10538;DHT22;5317;49.048;8.468;2024-02-23T04:50:46;11.50;80.70
10538;DHT22;5317;49.048;8.468;2024-02-23T04:53:13;11.50;80.70
10538;DHT22;5317;49.048;8.468;2024-02-23T04:55:40;11.40;79.80
10538;DHT22;5317;49.048;8.468;2024-02-23T04:58:07;11.30;79.80
10538;DHT22;5317;49.048;8.468;2024-02-23T05:00:34;11.30;80.30
10538;DHT22;5317;49.048;8.468;2024-02-23T05:03:02;11.30;80.10
10538;DHT22;5317;49.048;8.468;2024-02-23T05:05:29;11.30;79.90
10538;DHT22;5317;49.048;8.468;2024-02-23T05:07:57;11.30;79.70
10538;DHT22;5317;49.048;8.468;2024-02-23T05:10:24;11.30;79.60
10538;DHT22;5317;49.048;8.468;2024-02-23T05:12:50;11.40;79.70
10538;DHT22;5317;49.048;8.468;2024-02-23T05:15:17;11.40;79.60
10538;DHT22;5317;49.048;8.468;2024-02-23T05:17:44;11.50;79.20
10538;DHT22;5317;49.048;8.468;2024-02-23T05:20:14;11.50;79.80
10538;DHT22;5317;49.048;8.468;2024-02-23T05:22:41;11.50;78.90
10538;DHT22;5317;49.048;8.468;2024-02-23T05:25:08;11.50;78.60
10538;DHT22;5317;49.048;8.468;2024-02-23T05:27:35;11.50;77.80
10538;DHT22;5317;49.048;8.468;2024-02-23T05:30:02;11.50;78.10
10538;DHT22;5317;49.048;8.468;2024-02-23T05:32:30;11.40;78.20
10538;DHT22;5317;49.048;8.468;2024-02-23T05:34:56;11.50;78.70
10538;DHT22;5317;49.048;8.468;2024-02-23T05:37:25;11.50;78.30
10538;DHT22;5317;49.048;8.468;2024-02-23T05:39:52;11.50;78.60
10538;DHT22;5317;49.048;8.468;2024-02-23T05:42:19;11.50;78.60
10538;DHT22;5317;49.048;8.468;2024-02-23T05:44:46;11.40;78.80
10538;DHT22;5317;49.048;8.468;2024-02-23T05:47:14;11.40;78.70
10538;DHT22;5317;49.048;8.468;2024-02-23T05:49:41;11.40;78.80
10538;DHT22;5317;49.048;8.468;2024-02-23T05:52:10;11.30;78.80
10538;DHT22;5317;49.048;8.468;2024-02-23T05:54:39;11.20;78.20
10538;DHT22;5317;49.048;8.468;2024-02-23T05:57:06;11.20;77.90
10538;DHT22;5317;49.048;8.468;2024-02-23T05:59:32;11.20;78.40
10538;DHT22;5317;49.048;8.468;2024-02-23T06:01:59;11.10;78.00
10538;DHT22;5317;49.048;8.468;2024-02-23T06:04:26;11.10;77.90
10538;DHT22;5317;49.048;8.468;2024-02-23T06:06:53;11.10;77.90
10538;DHT22;5317;49.048;8.468;2024-02-23T06:09:20;11.10;77.60
10538;DHT22;5317;49.048;8.468;2024-02-23T06:11:48;11.10;77.20
10538;DHT22;5317;49.048;8.468;2024-02-23T06:14:15;11.00;77.00
10538;DHT22;5317;49.048;8.468;2024-02-23T06:16:42;11.00;77.20
10538;DHT22;5317;49.048;8.468;2024-02-23T06:19:09;10.90;76.40
10538;DHT22;5317;49.048;8.468;2024-02-23T06:21:36;10.90;76.90
10538;DHT22;5317;49.048;8.468;2024-02-23T06:24:03;10.80;76.50
10538;DHT22;5317;49.048;8.468;2024-02-23T06:26:30;10.70;76.30
10538;DHT22;5317;49.048;8.468;2024-02-23T06:28:58;10.70;76.70
10538;DHT22;5317;49.048;8.468;2024-02-23T06:31:25;10.60;76.50
10538;DHT22;5317;49.048;8.468;2024-02-23T06:33:52;10.60;76.90
10538;DHT22;5317;49.048;8.468;2024-02-23T06:36:19;10.60;77.60
10538;DHT22;5317;49.048;8.468;2024-02-23T06:38:46;10.60;77.30
10538;DHT22;5317;49.048;8.468;2024-02-23T06:41:13;10.50;76.30
10538;DHT22;5317;49.048;8.468;2024-02-23T06:43:40;10.50;77.00
10538;DHT22;5317;49.048;8.468;2024-02-23T06:46:08;10.50;76.90
10538;DHT22;5317;49.048;8.468;2024-02-23T06:48:36;10.50;76.90
10538;DHT22;5317;49.048;8.468;2024-02-23T06:51:03;10.40;76.80
10538;DHT22;5317;49.048;8.468;2024-02-23T06:53:30;10.40;77.00
10538;DHT22;5317;49.048;8.468;2024-02-23T06:55:57;10.50;77.30
10538;DHT22;5317;49.048;8.468;2024-02-23T06:58:26;10.40;77.60
10538;DHT22;5317;49.048;8.468;2024-02-23T07:00:53;10.40;77.90
10538;DHT22;5317;49.048;8.468;2024-02-23T07:03:21;10.50;78.30
10538;DHT22;5317;49.048;8.468;2024-02-23T07:05:48;10.50;78.30
10538;DHT22;5317;49.048;8.468;2024-02-23T07:08:16;10.50;78.30
10538;DHT22;5317;49.048;8.468;2024-02-23T07:10:42;10.60;78.40
10538;DHT22;5317;49.048;8.468;2024-02-23T07:13:09;10.60;78.60
10538;DHT22;5317;49.048;8.468;2024-02-23T07:15:36;10.70;79.10
10538;DHT22;5317;49.048;8.468;2024-02-23T07:18:04;10.70;78.60
10538;DHT22;5317;49.048;8.468;2024-02-23T07:20:32;10.70;78.30
10538;DHT22;5317;49.048;8.468;2024-02-23T07:22:59;10.70;78.20
10538;DHT22;5317;49.048;8.468;2024-02-23T07:25:26;10.70;78.60
10538;DHT22;5317;49.048;8.468;2024-02-23T07:27:53;10.60;78.80
10538;DHT22;5317;49.048;8.468;2024-02-23T07:30:20;10.70;79.10
10538;DHT22;5317;49.048;8.468;2024-02-23T07:32:47;10.70;79.10
10538;DHT22;5317;49.048;8.468;2024-02-23T07:35:14;10.70;79.10
10538;DHT22;5317;49.048;8.468;2024-02-23T07:37:42;10.80;79.20
10538;DHT22;5317;49.048;8.468;2024-02-23T07:40:10;10.80;79.10
10538;DHT22;5317;49.048;8.468;2024-02-23T07:42:38;10.80;79.10
10538;DHT22;5317;49.048;8.468;2024-02-23T07:45:06;10.90;79.30
10538;DHT22;5317;49.048;8.468;2024-02-23T07:47:35;10.90;79.40
10538;DHT22;5317;49.048;8.468;2024-02-23T07:50:02;11.00;79.40
10538;DHT22;5317;49.048;8.468;2024-02-23T07:52:29;11.10;79.40
10538;DHT22;5317;49.048;8.468;2024-02-23T07:54:57;11.20;79.10
10538;DHT22;5317;49.048;8.468;2024-02-23T07:57:25;11.30;78.80
10538;DHT22;5317;49.048;8.468;2024-02-23T07:59:52;11.40;78.40
10538;DHT22;5317;49.048;8.468;2024-02-23T08:02:19;11.50;78.70
10538;DHT22;5317;49.048;8.468;2024-02-23T08:04:46;11.70;78.50
10538;DHT22;5317;49.048;8.468;2024-02-23T08:07:13;11.70;78.00
10538;DHT22;5317;49.048;8.468;2024-02-23T08:09:40;11.80;77.90
10538;DHT22;5317;49.048;8.468;2024-02-23T08:12:09;11.90;77.90
10538;DHT22;5317;49.048;8.468;2024-02-23T08:14:36;11.90;77.30
10538;DHT22;5317;49.048;8.468;2024-02-23T08:17:04;12.00;77.00
10538;DHT22;5317;49.048;8.468;2024-02-23T08:19:30;12.10;76.80
10538;DHT22;5317;49.048;8.468;2024-02-23T08:21:57;12.20;76.10
10538;DHT22;5317;49.048;8.468;2024-02-23T08:24:24;12.20;75.90
10538;DHT22;5317;49.048;8.468;2024-02-23T08:26:52;12.30;74.80
10538;DHT22;5317;49.048;8.468;2024-02-23T08:29:21;12.40;75.00
10538;DHT22;5317;49.048;8.468;2024-02-23T08:31:48;12.50;74.70
10538;DHT22;5317;49.048;8.468;2024-02-23T08:34:15;12.50;74.20
10538;DHT22;5317;49.048;8.468;2024-02-23T08:36:43;12.50;73.00
10538;DHT22;5317;49.048;8.468;2024-02-23T08:39:10;12.60;73.30
10538;DHT22;5317;49.048;8.468;2024-02-23T08:41:37;12.60;72.80
10538;DHT22;5317;49.048;8.468;2024-02-23T08:44:04;12.70;73.20
10538;DHT22;5317;49.048;8.468;2024-02-23T08:46:33;12.70;73.30
10538;DHT22;5317;49.048;8.468;2024-02-23T08:48:59;12.90;73.00
10538;DHT22;5317;49.048;8.468;2024-02-23T08:51:26;13.00;72.10
10538;DHT22;5317;49.048;8.468;2024-02-23T08:53:53;12.90;70.70
10538;DHT22;5317;49.048;8.468;2024-02-23T08:56:21;12.90;70.90
10538;DHT22;5317;49.048;8.468;2024-02-23T08:58:48;12.90;70.30
10538;DHT22;5317;49.048;8.468;2024-02-23T09:01:15;13.00;70.70
10538;DHT22;5317;49.048;8.468;2024-02-23T09:03:43;13.20;70.30
10538;DHT22;5317;49.048;8.468;2024-02-23T09:06:10;13.20;68.00
10538;DHT22;5317;49.048;8.468;2024-02-23T09:08:37;13.20;68.20
10538;DHT22;5317;49.048;8.468;2024-02-23T09:11:04;13.20;66.70
10538;DHT22;5317;49.048;8.468;2024-02-23T09:13:31;13.30;67.80
10538;DHT22;5317;49.048;8.468;2024-02-23T09:15:58;13.30;66.00
10538;DHT22;5317;49.048;8.468;2024-02-23T09:18:25;13.40;67.80
10538;DHT22;5317;49.048;8.468;2024-02-23T09:20:54;13.60;68.10
10538;DHT22;5317;49.048;8.468;2024-02-23T09:23:20;13.70;65.80
10538;DHT22;5317;49.048;8.468;2024-02-23T09:25:47;13.50;65.80
10538;DHT22;5317;49.048;8.468;2024-02-23T09:28:14;13.50;67.10
10538;DHT22;5317;49.048;8.468;2024-02-23T09:30:41;13.60;66.10
10538;DHT22;5317;49.048;8.468;2024-02-23T09:33:08;13.70;66.90
10538;DHT22;5317;49.048;8.468;2024-02-23T09:35:35;13.70;66.30
10538;DHT22;5317;49.048;8.468;2024-02-23T09:38:03;13.80;66.50
10538;DHT22;5317;49.048;8.468;2024-02-23T09:40:30;13.80;66.10
10538;DHT22;5317;49.048;8.468;2024-02-23T09:42:58;13.70;65.10
10538;DHT22;5317;49.048;8.468;2024-02-23T09:45:25;13.50;65.30
10538;DHT22;5317;49.048;8.468;2024-02-23T09:47:53;13.60;65.90
10538;DHT22;5317;49.048;8.468;2024-02-23T09:50:22;13.70;67.00
10538;DHT22;5317;49.048;8.468;2024-02-23T09:52:50;13.80;66.30
10538;DHT22;5317;49.048;8.468;2024-02-23T09:55:18;13.90;66.50
10538;DHT22;5317;49.048;8.468;2024-02-23T09:57:48;13.80;65.40
10538;DHT22;5317;49.048;8.468;2024-02-23T10:00:16;13.90;65.50
10538;DHT22;5317;49.048;8.468;2024-02-23T10:02:44;13.90;65.80
10538;DHT22;5317;49.048;8.468;2024-02-23T10:05:12;14.00;66.30
10538;DHT22;5317;49.048;8.468;2024-02-23T10:07:41;14.10;66.30
10538;DHT22;5317;49.048;8.468;2024-02-23T10:10:08;14.10;65.40
10538;DHT22;5317;49.048;8.468;2024-02-23T10:12:37;14.10;65.30
10538;DHT22;5317;49.048;8.468;2024-02-23T10:15:06;14.20;65.00
10538;DHT22;5317;49.048;8.468;2024-02-23T10:17:33;14.10;63.80
10538;DHT22;5317;49.048;8.468;2024-02-23T10:20:00;14.10;65.40
10538;DHT22;5317;49.048;8.468;2024-02-23T10:22:30;14.20;65.40
10538;DHT22;5317;49.048;8.468;2024-02-23T10:24:57;14.30;65.00
10538;DHT22;5317;49.048;8.468;2024-02-23T10:27:24;14.40;65.00
10538;DHT22;5317;49.048;8.468;2024-02-23T10:29:53;14.40;65.40
10538;DHT22;5317;49.048;8.468;2024-02-23T10:32:20;14.60;64.30
10538;DHT22;5317;49.048;8.468;2024-02-23T10:34:48;14.60;64.30
10538;DHT22;5317;49.048;8.468;2024-02-23T10:37:16;14.60;64.50
10538;DHT22;5317;49.048;8.468;2024-02-23T10:39:43;14.70;65.00
10538;DHT22;5317;49.048;8.468;2024-02-23T10:42:10;14.90;64.70
10538;DHT22;5317;49.048;8.468;2024-02-23T10:44:39;15.10;64.40
10538;DHT22;5317;49.048;8.468;2024-02-23T10:47:08;15.20;64.20
10538;DHT22;5317;49.048;8.468;2024-02-23T10:49:36;15.20;63.00
10538;DHT22;5317;49.048;8.468;2024-02-23T10:52:07;15.30;62.40
10538;DHT22;5317;49.048;8.468;2024-02-23T10:54:38;15.20;62.60
10538;DHT22;5317;49.048;8.468;2024-02-23T10:57:06;15.10;62.20
10538;DHT22;5317;49.048;8.468;2024-02-23T10:59:34;15.10;62.00
10538;DHT22;5317;49.048;8.468;2024-02-23T11:02:01;15.00;61.80
10538;DHT22;5317;49.048;8.468;2024-02-23T11:04:31;14.90;61.60
10538;DHT22;5317;49.048;8.468;2024-02-23T11:06:59;14.90;62.00
10538;DHT22;5317;49.048;8.468;2024-02-23T11:09:32;14.80;61.70
10538;DHT22;5317;49.048;8.468;2024-02-23T11:12:03;14.80;61.50
10538;DHT22;5317;49.048;8.468;2024-02-23T11:14:31;14.80;61.90
10538;DHT22;5317;49.048;8.468;2024-02-23T11:16:59;14.70;61.90
10538;DHT22;5317;49.048;8.468;2024-02-23T11:19:34;14.70;62.30
10538;DHT22;5317;49.048;8.468;2024-02-23T11:22:02;14.80;61.90
10538;DHT22;5317;49.048;8.468;2024-02-23T11:24:29;14.80;62.80
10538;DHT22;5317;49.048;8.468;2024-02-23T11:26:57;14.90;62.90
10538;DHT22;5317;49.048;8.468;2024-02-23T11:29:26;14.90;63.10
10538;DHT22;5317;49.048;8.468;2024-02-23T11:31:55;14.80;63.00
10538;DHT22;5317;49.048;8.468;2024-02-23T11:34:27;14.80;63.70
10538;DHT22;5317;49.048;8.468;2024-02-23T11:36:56;14.70;62.70
10538;DHT22;5317;49.048;8.468;2024-02-23T11:39:26;14.70;63.20
10538;DHT22;5317;49.048;8.468;2024-02-23T11:41:54;14.80;63.30
10538;DHT22;5317;49.048;8.468;2024-02-23T11:44:22;14.90;63.20
10538;DHT22;5317;49.048;8.468;2024-02-23T11:46:49;15.00;63.30
10538;DHT22;5317;49.048;8.468;2024-02-23T11:49:19;14.90;62.70
10538;DHT22;5317;49.048;8.468;2024-02-23T11:51:46;15.00;62.50
10538;DHT22;5317;49.048;8.468;2024-02-23T11:54:15;15.10;62.70
10538;DHT22;5317;49.048;8.468;2024-02-23T11:56:42;15.50;62.50
10538;DHT22;5317;49.048;8.468;2024-02-23T11:59:10;15.70;61.80
10538;DHT22;5317;49.048;8.468;2024-02-23T12:01:37;15.90;61.00
10538;DHT22;5317;49.048;8.468;2024-02-23T12:04:04;15.90;61.20
10538;DHT22;5317;49.048;8.468;2024-02-23T12:06:31;16.00;60.40
10538;DHT22;5317;49.048;8.468;2024-02-23T12:08:59;15.90;60.60
10538;DHT22;5317;49.048;8.468;2024-02-23T12:11:27;16.00;61.10
10538;DHT22;5317;49.048;8.468;2024-02-23T12:13:55;16.10;60.90
10538;DHT22;5317;49.048;8.468;2024-02-23T12:16:22;16.20;60.70
10538;DHT22;5317;49.048;8.468;2024-02-23T12:18:53;16.10;60.60
10538;DHT22;5317;49.048;8.468;2024-02-23T12:21:21;16.00;59.90
10538;DHT22;5317;49.048;8.468;2024-02-23T12:23:50;15.80;59.50
10538;DHT22;5317;49.048;8.468;2024-02-23T12:26:18;15.70;59.70
10538;DHT22;5317;49.048;8.468;2024-02-23T12:28:46;15.70;59.60
10538;DHT22;5317;49.048;8.468;2024-02-23T12:31:13;15.60;59.00
10538;DHT22;5317;49.048;8.468;2024-02-23T12:33:41;15.50;59.50
10538;DHT22;5317;49.048;8.468;2024-02-23T12:36:13;15.50;59.60
10538;DHT22;5317;49.048;8.468;2024-02-23T12:38:40;15.80;60.10
10538;DHT22;5317;49.048;8.468;2024-02-23T12:41:08;16.10;59.70
10538;DHT22;5317;49.048;8.468;2024-02-23T12:43:37;16.30;60.00
10538;DHT22;5317;49.048;8.468;2024-02-23T12:46:06;16.60;58.40
10538;DHT22;5317;49.048;8.468;2024-02-23T12:48:34;16.90;58.10
10538;DHT22;5317;49.048;8.468;2024-02-23T12:51:02;17.00;57.70
10538;DHT22;5317;49.048;8.468;2024-02-23T12:53:33;17.00;57.30
10538;DHT22;5317;49.048;8.468;2024-02-23T12:56:02;17.00;57.20
10538;DHT22;5317;49.048;8.468;2024-02-23T12:58:29;16.70;56.90
10538;DHT22;5317;49.048;8.468;2024-02-23T13:00:56;16.40;57.00
10538;DHT22;5317;49.048;8.468;2024-02-23T13:03:25;16.20;57.50
10538;DHT22;5317;49.048;8.468;2024-02-23T13:05:53;16.00;57.60
10538;DHT22;5317;49.048;8.468;2024-02-23T13:08:20;15.80;57.90
10538;DHT22;5317;49.048;8.468;2024-02-23T13:10:47;15.70;58.50
10538;DHT22;5317;49.048;8.468;2024-02-23T13:13:14;15.60;58.00
10538;DHT22;5317;49.048;8.468;2024-02-23T13:15:42;15.50;57.90
10538;DHT22;5317;49.048;8.468;2024-02-23T13:18:10;15.40;57.90
10538;DHT22;5317;49.048;8.468;2024-02-23T13:20:38;15.40;58.80
10538;DHT22;5317;49.048;8.468;2024-02-23T13:23:07;15.60;58.60
10538;DHT22;5317;49.048;8.468;2024-02-23T13:25:37;15.70;58.10
10538;DHT22;5317;49.048;8.468;2024-02-23T13:28:05;15.80;58.50
10538;DHT22;5317;49.048;8.468;2024-02-23T13:30:32;16.00;58.60
10538;DHT22;5317;49.048;8.468;2024-02-23T13:32:59;16.00;58.30
10538;DHT22;5317;49.048;8.468;2024-02-23T13:35:26;16.10;57.70
10538;DHT22;5317;49.048;8.468;2024-02-23T13:37:55;16.40;57.80
10538;DHT22;5317;49.048;8.468;2024-02-23T13:40:23;16.70;56.90
10538;DHT22;5317;49.048;8.468;2024-02-23T13:42:50;17.60;57.30
10538;DHT22;5317;49.048;8.468;2024-02-23T13:45:19;18.50;55.80
10538;DHT22;5317;49.048;8.468;2024-02-23T13:47:56;19.00;55.10
10538;DHT22;5317;49.048;8.468;2024-02-23T13:50:23;20.70;52.10
10538;DHT22;5317;49.048;8.468;2024-02-23T13:52:51;20.60;50.90
10538;DHT22;5317;49.048;8.468;2024-02-23T13:55:19;20.60;50.80
10538;DHT22;5317;49.048;8.468;2024-02-23T13:57:47;20.50;50.40
10538;DHT22;5317;49.048;8.468;2024-02-23T14:00:15;22.10;50.60
10538;DHT22;5317;49.048;8.468;2024-02-23T14:02:43;21.90;48.80
10538;DHT22;5317;49.048;8.468;2024-02-23T14:05:10;21.20;49.10
10538;DHT22;5317;49.048;8.468;2024-02-23T14:07:37;20.30;49.20
10538;DHT22;5317;49.048;8.468;2024-02-23T14:10:05;19.50;49.60
10538;DHT22;5317;49.048;8.468;2024-02-23T14:12:34;18.80;49.60
10538;DHT22;5317;49.048;8.468;2024-02-23T14:15:01;18.30;50.80
10538;DHT22;5317;49.048;8.468;2024-02-23T14:17:28;17.90;51.10
10538;DHT22;5317;49.048;8.468;2024-02-23T14:19:55;17.50;52.00
10538;DHT22;5317;49.048;8.468;2024-02-23T14:22:22;17.30;52.90
10538;DHT22;5317;49.048;8.468;2024-02-23T14:24:49;17.00;52.90
10538;DHT22;5317;49.048;8.468;2024-02-23T14:27:16;16.90;53.40
10538;DHT22;5317;49.048;8.468;2024-02-23T14:29:45;16.90;53.60
10538;DHT22;5317;49.048;8.468;2024-02-23T14:32:16;16.70;54.10
10538;DHT22;5317;49.048;8.468;2024-02-23T14:34:45;16.60;53.90
10538;DHT22;5317;49.048;8.468;2024-02-23T14:37:12;16.50;53.80
10538;DHT22;5317;49.048;8.468;2024-02-23T14:39:39;16.40;54.50
10538;DHT22;5317;49.048;8.468;2024-02-23T14:42:06;16.20;54.60
10538;DHT22;5317;49.048;8.468;2024-02-23T14:44:34;16.10;54.60
10538;DHT22;5317;49.048;8.468;2024-02-23T14:47:03;16.00;54.30
10538;DHT22;5317;49.048;8.468;2024-02-23T14:49:31;16.10;54.60
10538;DHT22;5317;49.048;8.468;2024-02-23T14:51:58;16.70;54.40
10538;DHT22;5317;49.048;8.468;2024-02-23T14:54:25;17.20;53.40
10538;DHT22;5317;49.048;8.468;2024-02-23T14:56:54;17.50;53.70
10538;DHT22;5317;49.048;8.468;2024-02-23T14:59:21;19.40;51.00
10538;DHT22;5317;49.048;8.468;2024-02-23T15:01:48;22.10;49.80
10538;DHT22;5317;49.048;8.468;2024-02-23T15:04:17;24.40;47.50
10538;DHT22;5317;49.048;8.468;2024-02-23T15:06:44;26.20;43.50
10538;DHT22;5317;49.048;8.468;2024-02-23T15:09:11;25.00;42.00
10538;DHT22;5317;49.048;8.468;2024-02-23T15:11:38;23.50;42.60
10538;DHT22;5317;49.048;8.468;2024-02-23T15:14:05;22.00;43.60
10538;DHT22;5317;49.048;8.468;2024-02-23T15:16:32;21.00;44.80
10538;DHT22;5317;49.048;8.468;2024-02-23T15:18:59;20.40;45.70
10538;DHT22;5317;49.048;8.468;2024-02-23T15:21:27;19.90;46.50
10538;DHT22;5317;49.048;8.468;2024-02-23T15:23:54;19.40;46.50
10538;DHT22;5317;49.048;8.468;2024-02-23T15:26:21;19.00;46.90
10538;DHT22;5317;49.048;8.468;2024-02-23T15:28:49;18.70;47.30
10538;DHT22;5317;49.048;8.468;2024-02-23T15:31:16;18.40;47.60
10538;DHT22;5317;49.048;8.468;2024-02-23T15:33:43;18.10;48.30
10538;DHT22;5317;49.048;8.468;2024-02-23T15:36:11;17.80;48.20
10538;DHT22;5317;49.048;8.468;2024-02-23T15:38:42;17.80;49.00
10538;DHT22;5317;49.048;8.468;2024-02-23T15:41:09;17.60;48.90
10538;DHT22;5317;49.048;8.468;2024-02-23T15:43:36;17.30;49.00
10538;DHT22;5317;49.048;8.468;2024-02-23T15:46:03;17.10;49.20